sensor_id;sensor_type;location;lat;lon;timestamp;temperature;humidity
64670;DHT22;51080;51.690;5.174;2022-09-01T00:05:40;16.80;56.30
64670;DHT22;51080;51.690;5.174;2022-09-01T00:11:54;16.80;55.80
64670;DHT22;51080;51.690;5.174;2022-09-01T00:17:45;16.70;56.50
64670;DHT22;51080;51.690;5.174;2022-09-01T00:23:53;16.70;56.60
64670;DHT22;51080;51.690;5.174;2022-09-01T00:54:11;16.70;56.90
64670;DHT22;51080;51.690;5.174;2022-09-01T01:00:22;16.70;57.00
64670;DHT22;51080;51.690;5.174;2022-09-01T01:06:16;16.80;57.20
64670;DHT22;51080;51.690;5.174;2022-09-01T01:12:05;16.70;57.10
64670;DHT22;51080;51.690;5.174;2022-09-01T01:30:23;16.50;58.60
64670;DHT22;51080;51.690;5.174;2022-09-01T01:42:20;16.30;58.20
64670;DHT22;51080;51.690;5.174;2022-09-01T01:48:22;16.20;58.80
64670;DHT22;51080;51.690;5.174;2022-09-01T01:54:16;16.10;59.40
64670;DHT22;51080;51.690;5.174;2022-09-01T02:00:23;16.00;59.30
64670;DHT22;51080;51.690;5.174;2022-09-01T02:06:20;15.90;59.80
64670;DHT22;51080;51.690;5.174;2022-09-01T02:12:16;15.90;59.90
64670;DHT22;51080;51.690;5.174;2022-09-01T02:18:11;15.90;60.30
64670;DHT22;51080;51.690;5.174;2022-09-01T02:24:01;15.90;60.10
64670;DHT22;51080;51.690;5.174;2022-09-01T02:29:50;15.90;59.50
64670;DHT22;51080;51.690;5.174;2022-09-01T02:35:36;15.90;60.10
64670;DHT22;51080;51.690;5.174;2022-09-01T02:41:28;15.90;60.70
64670;DHT22;51080;51.690;5.174;2022-09-01T02:47:18;15.80;61.00
64670;DHT22;51080;51.690;5.174;2022-09-01T02:53:13;15.70;60.50
64670;DHT22;51080;51.690;5.174;2022-09-01T02:59:08;15.60;61.00
64670;DHT22;51080;51.690;5.174;2022-09-01T03:10:50;15.50;61.20
64670;DHT22;51080;51.690;5.174;2022-09-01T03:16:36;15.40;61.50
64670;DHT22;51080;51.690;5.174;2022-09-01T03:22:43;15.30;61.10
64670;DHT22;51080;51.690;5.174;2022-09-01T03:28:28;15.20;61.70
64670;DHT22;51080;51.690;5.174;2022-09-01T03:34:16;15.10;61.80
64670;DHT22;51080;51.690;5.174;2022-09-01T03:40:04;15.00;62.00
64670;DHT22;51080;51.690;5.174;2022-09-01T03:46:00;15.00;62.40
64670;DHT22;51080;51.690;5.174;2022-09-01T03:52:01;14.90;61.90
64670;DHT22;51080;51.690;5.174;2022-09-01T03:57:51;14.80;62.20
64670;DHT22;51080;51.690;5.174;2022-09-01T04:03:43;14.80;62.20
64670;DHT22;51080;51.690;5.174;2022-09-01T04:09:47;14.80;62.30
64670;DHT22;51080;51.690;5.174;2022-09-01T04:15:38;14.70;62.30
64670;DHT22;51080;51.690;5.174;2022-09-01T04:21:29;14.70;62.80
64670;DHT22;51080;51.690;5.174;2022-09-01T04:27:20;14.60;62.80
64670;DHT22;51080;51.690;5.174;2022-09-01T04:33:07;14.60;62.40
64670;DHT22;51080;51.690;5.174;2022-09-01T04:38:58;14.70;62.40
64670;DHT22;51080;51.690;5.174;2022-09-01T04:45:14;14.90;62.00
64670;DHT22;51080;51.690;5.174;2022-09-01T04:51:13;15.10;62.20
64670;DHT22;51080;51.690;5.174;2022-09-01T04:57:00;15.10;61.30
64670;DHT22;51080;51.690;5.174;2022-09-01T05:08:56;15.00;61.30
64670;DHT22;51080;51.690;5.174;2022-09-01T05:14:59;15.00;61.30
64670;DHT22;51080;51.690;5.174;2022-09-01T05:21:03;15.00;61.80
64670;DHT22;51080;51.690;5.174;2022-09-01T05:26:57;15.10;61.40
64670;DHT22;51080;51.690;5.174;2022-09-01T05:32:51;15.10;61.10
64670;DHT22;51080;51.690;5.174;2022-09-01T05:38:46;15.00;61.30
64670;DHT22;51080;51.690;5.174;2022-09-01T05:44:35;14.90;61.40
64670;DHT22;51080;51.690;5.174;2022-09-01T05:50:20;14.90;61.50
64670;DHT22;51080;51.690;5.174;2022-09-01T05:56:12;14.90;61.70
64670;DHT22;51080;51.690;5.174;2022-09-01T06:01:58;14.90;61.70
64670;DHT22;51080;51.690;5.174;2022-09-01T06:07:47;14.90;61.40
64670;DHT22;51080;51.690;5.174;2022-09-01T06:13:34;14.90;61.00
64670;DHT22;51080;51.690;5.174;2022-09-01T06:19:38;15.00;61.30
64670;DHT22;51080;51.690;5.174;2022-09-01T06:25:24;15.10;61.30
64670;DHT22;51080;51.690;5.174;2022-09-01T06:31:15;15.30;60.80
64670;DHT22;51080;51.690;5.174;2022-09-01T06:37:03;15.40;60.30
64670;DHT22;51080;51.690;5.174;2022-09-01T06:43:03;15.50;60.20
64670;DHT22;51080;51.690;5.174;2022-09-01T06:48:55;15.60;59.80
64670;DHT22;51080;51.690;5.174;2022-09-01T06:54:46;15.70;59.60
64670;DHT22;51080;51.690;5.174;2022-09-01T07:06:49;16.00;59.30
64670;DHT22;51080;51.690;5.174;2022-09-01T07:12:50;16.10;58.70
64670;DHT22;51080;51.690;5.174;2022-09-01T07:18:39;16.20;58.70
64670;DHT22;51080;51.690;5.174;2022-09-01T07:24:36;16.40;58.70
64670;DHT22;51080;51.690;5.174;2022-09-01T07:30:27;16.60;58.30
64670;DHT22;51080;51.690;5.174;2022-09-01T07:36:28;16.80;57.70
64670;DHT22;51080;51.690;5.174;2022-09-01T07:42:21;16.90;57.50
64670;DHT22;51080;51.690;5.174;2022-09-01T07:48:20;17.10;57.40
64670;DHT22;51080;51.690;5.174;2022-09-01T07:54:06;17.30;56.70
64670;DHT22;51080;51.690;5.174;2022-09-01T08:00:00;17.40;56.80
64670;DHT22;51080;51.690;5.174;2022-09-01T08:06:01;17.60;56.60
64670;DHT22;51080;51.690;5.174;2022-09-01T08:11:52;17.90;56.20
64670;DHT22;51080;51.690;5.174;2022-09-01T08:17:39;18.10;55.80
64670;DHT22;51080;51.690;5.174;2022-09-01T08:23:40;18.40;55.00
64670;DHT22;51080;51.690;5.174;2022-09-01T08:29:27;18.60;55.00
64670;DHT22;51080;51.690;5.174;2022-09-01T08:35:25;18.90;54.40
64670;DHT22;51080;51.690;5.174;2022-09-01T08:53:43;20.10;52.90
64670;DHT22;51080;51.690;5.174;2022-09-01T08:59:31;21.30;51.50
64670;DHT22;51080;51.690;5.174;2022-09-01T09:05:29;24.50;45.10
64670;DHT22;51080;51.690;5.174;2022-09-01T09:17:37;28.70;39.70
64670;DHT22;51080;51.690;5.174;2022-09-01T09:23:35;29.80;37.60
64670;DHT22;51080;51.690;5.174;2022-09-01T09:29:29;30.40;36.90
64670;DHT22;51080;51.690;5.174;2022-09-01T09:35:31;31.00;35.70
64670;DHT22;51080;51.690;5.174;2022-09-01T09:41:30;31.20;35.50
64670;DHT22;51080;51.690;5.174;2022-09-01T09:47:33;31.60;34.70
64670;DHT22;51080;51.690;5.174;2022-09-01T09:53:27;31.90;34.10
64670;DHT22;51080;51.690;5.174;2022-09-01T10:11:40;32.60;33.10
64670;DHT22;51080;51.690;5.174;2022-09-01T10:17:41;33.00;32.10
64670;DHT22;51080;51.690;5.174;2022-09-01T10:23:33;33.20;31.70
64670;DHT22;51080;51.690;5.174;2022-09-01T10:29:28;33.90;30.80
64670;DHT22;51080;51.690;5.174;2022-09-01T10:35:25;34.10;29.80
64670;DHT22;51080;51.690;5.174;2022-09-01T10:41:43;34.70;29.60
64670;DHT22;51080;51.690;5.174;2022-09-01T10:47:34;35.30;28.40
64670;DHT22;51080;51.690;5.174;2022-09-01T10:53:43;35.90;27.70
64670;DHT22;51080;51.690;5.174;2022-09-01T10:59:43;36.50;26.90
64670;DHT22;51080;51.690;5.174;2022-09-01T11:11:55;37.80;25.60
64670;DHT22;51080;51.690;5.174;2022-09-01T11:23:41;38.90;24.40
64670;DHT22;51080;51.690;5.174;2022-09-01T11:29:55;39.50;24.10
64670;DHT22;51080;51.690;5.174;2022-09-01T11:35:49;40.40;24.00
64670;DHT22;51080;51.690;5.174;2022-09-01T11:41:53;41.20;23.30
64670;DHT22;51080;51.690;5.174;2022-09-01T11:47:59;41.40;22.80
64670;DHT22;51080;51.690;5.174;2022-09-01T11:53:48;41.20;22.30
64670;DHT22;51080;51.690;5.174;2022-09-01T11:59:36;41.10;22.20
64670;DHT22;51080;51.690;5.174;2022-09-01T12:05:32;41.50;22.10
64670;DHT22;51080;51.690;5.174;2022-09-01T12:11:29;42.20;22.10
64670;DHT22;51080;51.690;5.174;2022-09-01T12:17:19;42.40;21.70
64670;DHT22;51080;51.690;5.174;2022-09-01T12:23:25;42.60;21.10
64670;DHT22;51080;51.690;5.174;2022-09-01T12:29:20;42.90;21.30
64670;DHT22;51080;51.690;5.174;2022-09-01T12:41:36;43.00;21.00
64670;DHT22;51080;51.690;5.174;2022-09-01T12:53:34;43.10;20.30
64670;DHT22;51080;51.690;5.174;2022-09-01T12:59:27;43.30;20.10
64670;DHT22;51080;51.690;5.174;2022-09-01T13:05:40;43.10;19.90
64670;DHT22;51080;51.690;5.174;2022-09-01T13:11:26;43.70;19.70
64670;DHT22;51080;51.690;5.174;2022-09-01T13:17:17;43.90;19.30
64670;DHT22;51080;51.690;5.174;2022-09-01T13:23:07;44.30;19.30
64670;DHT22;51080;51.690;5.174;2022-09-01T13:28:55;44.50;18.80
64670;DHT22;51080;51.690;5.174;2022-09-01T13:35:03;43.40;19.10
64670;DHT22;51080;51.690;5.174;2022-09-01T13:40:58;42.70;19.50
64670;DHT22;51080;51.690;5.174;2022-09-01T13:46:53;41.90;19.60
64670;DHT22;51080;51.690;5.174;2022-09-01T13:52:56;39.20;21.00
64670;DHT22;51080;51.690;5.174;2022-09-01T13:59:02;36.70;22.30
64670;DHT22;51080;51.690;5.174;2022-09-01T14:05:00;34.20;23.80
64670;DHT22;51080;51.690;5.174;2022-09-01T14:10:57;33.40;24.80
64670;DHT22;51080;51.690;5.174;2022-09-01T14:17:02;34.90;23.70
64670;DHT22;51080;51.690;5.174;2022-09-01T14:23:04;33.80;24.40
64670;DHT22;51080;51.690;5.174;2022-09-01T14:28:59;32.20;25.50
64670;DHT22;51080;51.690;5.174;2022-09-01T14:34:50;31.90;26.00
64670;DHT22;51080;51.690;5.174;2022-09-01T14:40:47;34.20;24.60
64670;DHT22;51080;51.690;5.174;2022-09-01T14:46:44;36.20;22.20
64670;DHT22;51080;51.690;5.174;2022-09-01T14:52:41;37.70;22.20
64670;DHT22;51080;51.690;5.174;2022-09-01T14:58:45;38.90;21.70
64670;DHT22;51080;51.690;5.174;2022-09-01T15:04:56;39.50;20.90
64670;DHT22;51080;51.690;5.174;2022-09-01T15:11:01;39.40;21.10
64670;DHT22;51080;51.690;5.174;2022-09-01T15:17:05;39.20;20.70
64670;DHT22;51080;51.690;5.174;2022-09-01T15:23:08;39.10;21.00
64670;DHT22;51080;51.690;5.174;2022-09-01T15:29:02;38.80;21.00
64670;DHT22;51080;51.690;5.174;2022-09-01T15:34:54;38.40;21.30
64670;DHT22;51080;51.690;5.174;2022-09-01T15:40:45;38.10;21.70
64670;DHT22;51080;51.690;5.174;2022-09-01T15:46:34;38.00;21.70
64670;DHT22;51080;51.690;5.174;2022-09-01T15:52:25;37.50;21.80
64670;DHT22;51080;51.690;5.174;2022-09-01T15:58:24;36.90;22.30
64670;DHT22;51080;51.690;5.174;2022-09-01T16:04:29;36.30;22.40
64670;DHT22;51080;51.690;5.174;2022-09-01T16:10:22;36.00;22.50
64670;DHT22;51080;51.690;5.174;2022-09-01T16:22:39;34.70;23.50
64670;DHT22;51080;51.690;5.174;2022-09-01T16:28:51;34.20;23.90
64670;DHT22;51080;51.690;5.174;2022-09-01T16:34:46;33.20;23.90
64670;DHT22;51080;51.690;5.174;2022-09-01T16:40:54;31.80;25.70
64670;DHT22;51080;51.690;5.174;2022-09-01T16:53:42;29.90;26.70
64670;DHT22;51080;51.690;5.174;2022-09-01T16:59:51;29.20;30.50
64670;DHT22;51080;51.690;5.174;2022-09-01T17:06:02;28.30;33.20
64670;DHT22;51080;51.690;5.174;2022-09-01T17:12:17;27.50;33.00
64670;DHT22;51080;51.690;5.174;2022-09-01T17:18:45;26.80;34.20
64670;DHT22;51080;51.690;5.174;2022-09-01T17:25:01;26.20;36.20
64670;DHT22;51080;51.690;5.174;2022-09-01T17:37:37;24.00;40.20
64670;DHT22;51080;51.690;5.174;2022-09-01T17:55:59;23.20;40.30
64670;DHT22;51080;51.690;5.174;2022-09-01T18:08:42;22.80;41.50
64670;DHT22;51080;51.690;5.174;2022-09-01T18:20:45;22.40;41.80
64670;DHT22;51080;51.690;5.174;2022-09-01T18:26:41;22.20;42.80
64670;DHT22;51080;51.690;5.174;2022-09-01T18:39:32;21.90;43.90
64670;DHT22;51080;51.690;5.174;2022-09-01T18:45:36;21.70;43.10
64670;DHT22;51080;51.690;5.174;2022-09-01T18:51:56;21.50;44.30
64670;DHT22;51080;51.690;5.174;2022-09-01T19:10:02;21.10;45.00
64670;DHT22;51080;51.690;5.174;2022-09-01T19:22:00;20.80;44.50
64670;DHT22;51080;51.690;5.174;2022-09-01T19:28:06;20.70;45.80
64670;DHT22;51080;51.690;5.174;2022-09-01T19:33:52;20.50;45.70
64670;DHT22;51080;51.690;5.174;2022-09-01T19:39:44;20.40;46.20
64670;DHT22;51080;51.690;5.174;2022-09-01T19:57:56;20.10;45.60
64670;DHT22;51080;51.690;5.174;2022-09-01T20:03:48;20.00;45.10
64670;DHT22;51080;51.690;5.174;2022-09-01T20:09:49;19.90;45.00
64670;DHT22;51080;51.690;5.174;2022-09-01T20:21:53;19.80;44.80
64670;DHT22;51080;51.690;5.174;2022-09-01T20:40:11;19.60;44.90
64670;DHT22;51080;51.690;5.174;2022-09-01T20:45:58;19.50;44.70
64670;DHT22;51080;51.690;5.174;2022-09-01T20:58:05;19.30;44.60
64670;DHT22;51080;51.690;5.174;2022-09-01T21:04:21;19.20;44.30
64670;DHT22;51080;51.690;5.174;2022-09-01T21:16:19;19.10;44.80
64670;DHT22;51080;51.690;5.174;2022-09-01T21:22:11;19.00;44.90
64670;DHT22;51080;51.690;5.174;2022-09-01T21:28:02;18.90;45.20
64670;DHT22;51080;51.690;5.174;2022-09-01T21:33:51;18.80;45.30
64670;DHT22;51080;51.690;5.174;2022-09-01T21:39:39;18.70;45.30
64670;DHT22;51080;51.690;5.174;2022-09-01T21:45:24;18.70;45.30
64670;DHT22;51080;51.690;5.174;2022-09-01T21:51:12;18.60;45.20
64670;DHT22;51080;51.690;5.174;2022-09-01T21:56:59;18.50;45.40
64670;DHT22;51080;51.690;5.174;2022-09-01T22:02:48;18.50;45.40
64670;DHT22;51080;51.690;5.174;2022-09-01T22:08:33;18.40;45.50
64670;DHT22;51080;51.690;5.174;2022-09-01T22:14:27;18.30;45.40
64670;DHT22;51080;51.690;5.174;2022-09-01T22:20:18;18.20;45.70
64670;DHT22;51080;51.690;5.174;2022-09-01T22:26:05;18.10;46.10
64670;DHT22;51080;51.690;5.174;2022-09-01T22:31:51;18.00;46.20
64670;DHT22;51080;51.690;5.174;2022-09-01T22:37:47;17.90;46.40
64670;DHT22;51080;51.690;5.174;2022-09-01T22:43:35;17.90;46.20
64670;DHT22;51080;51.690;5.174;2022-09-01T22:49:20;17.80;46.40
64670;DHT22;51080;51.690;5.174;2022-09-01T22:55:09;17.80;46.30
64670;DHT22;51080;51.690;5.174;2022-09-01T23:00:57;17.70;47.10
64670;DHT22;51080;51.690;5.174;2022-09-01T23:06:47;17.60;46.70
64670;DHT22;51080;51.690;5.174;2022-09-01T23:12:33;17.50;47.00
64670;DHT22;51080;51.690;5.174;2022-09-01T23:18:22;17.50;48.00
64670;DHT22;51080;51.690;5.174;2022-09-01T23:24:09;17.40;47.10
64670;DHT22;51080;51.690;5.174;2022-09-01T23:29:55;17.40;47.50
64670;DHT22;51080;51.690;5.174;2022-09-01T23:35:46;17.30;47.70
64670;DHT22;51080;51.690;5.174;2022-09-01T23:41:40;17.30;47.50
64670;DHT22;51080;51.690;5.174;2022-09-01T23:47:59;17.30;47.50
64670;DHT22;51080;51.690;5.174;2022-09-01T23:53:46;17.30;46.40
64670;DHT22;51080;51.690;5.174;2022-09-01T23:59:33;17.20;46.90
